createdAt,value
2023-01-29T00:02:25.324Z,74.39
2023-01-29T00:04:59.091Z,73.98
2023-01-29T00:07:30.096Z,74.40
2023-01-29T00:10:01.279Z,74.21
2023-01-29T00:12:44.122Z,73.97
2023-01-29T00:15:17.385Z,73.66
2023-01-29T00:17:48.393Z,73.29
2023-01-29T00:20:19.704Z,73.40
2023-01-29T00:22:51.687Z,72.74
2023-01-29T00:25:22.272Z,72.51
2023-01-29T00:27:52.826Z,71.74
2023-01-29T00:30:25.102Z,70.83
2023-01-29T00:32:55.829Z,71.30
2023-01-29T00:35:26.291Z,69.76
2023-01-29T00:37:58.859Z,70.17
2023-01-29T00:40:49.782Z,69.25
2023-01-29T00:43:36.987Z,68.73
2023-01-29T00:46:09.392Z,68.10
2023-01-29T00:48:39.972Z,68.06
2023-01-29T00:51:11.959Z,67.99
2023-01-29T00:53:42.485Z,66.23
2023-01-29T00:56:23.643Z,66.19
2023-01-29T00:58:59.253Z,66.70
2023-01-29T01:01:48.188Z,66.92
2023-01-29T01:04:18.662Z,66.83
2023-01-29T01:06:49.156Z,66.30
2023-01-29T01:09:36.819Z,66.18
2023-01-29T01:12:12.019Z,65.91
2023-01-29T01:14:44.630Z,66.06
2023-01-29T01:17:16.740Z,65.79
2023-01-29T01:19:47.268Z,66.50
2023-01-29T01:22:17.876Z,65.59
2023-01-29T01:24:48.395Z,63.73
2023-01-29T01:27:20.695Z,63.70
2023-01-29T01:29:51.264Z,64.09
2023-01-29T01:32:23.551Z,65.15
2023-01-29T01:34:55.592Z,64.79
2023-01-29T01:37:26.130Z,65.56
2023-01-29T01:39:59.477Z,65.64
2023-01-29T01:42:33.047Z,66.06
2023-01-29T01:45:06.152Z,66.73
2023-01-29T01:47:43.597Z,66.10
2023-01-29T01:50:31.261Z,66.86
2023-01-29T01:53:07.641Z,66.25
2023-01-29T01:55:45.656Z,65.77
2023-01-29T01:58:22.384Z,65.88
2023-01-29T02:00:53.444Z,64.51
2023-01-29T02:03:49.096Z,64.11
2023-01-29T02:06:41.268Z,63.67
2023-01-29T02:09:36.948Z,63.78
2023-01-29T02:12:10.045Z,64.87
2023-01-29T02:14:43.171Z,64.34
2023-01-29T02:17:16.959Z,64.32
2023-01-29T02:19:56.262Z,63.71
2023-01-29T02:23:03.394Z,63.59
2023-01-29T02:25:58.510Z,64.01
2023-01-29T02:28:44.481Z,63.42
2023-01-29T02:31:25.092Z,62.36
2023-01-29T02:34:03.990Z,62.35
2023-01-29T02:36:43.301Z,61.68
2023-01-29T02:39:22.507Z,60.68
2023-01-29T02:41:59.315Z,61.19
2023-01-29T02:44:38.144Z,60.60
2023-01-29T02:47:18.502Z,61.31
2023-01-29T02:49:54.657Z,59.86
2023-01-29T02:52:29.915Z,59.58
2023-01-29T02:55:09.626Z,57.17
2023-01-29T02:57:42.847Z,58.04
2023-01-29T03:00:19.707Z,58.33
2023-01-29T03:02:56.868Z,59.04
2023-01-29T03:05:33.355Z,58.81
2023-01-29T03:08:08.875Z,58.05
2023-01-29T03:10:43.491Z,57.70
2023-01-29T03:13:21.163Z,57.55
2023-01-29T03:16:02.235Z,55.56
2023-01-29T03:18:37.680Z,54.99
2023-01-29T03:21:32.111Z,55.62
2023-01-29T03:24:20.245Z,55.06
2023-01-29T03:27:07.918Z,55.72
2023-01-29T03:29:58.362Z,55.62
2023-01-29T03:32:32.924Z,53.75
2023-01-29T03:35:08.623Z,53.89
2023-01-29T03:37:44.212Z,53.78
2023-01-29T03:40:16.429Z,52.71
2023-01-29T03:43:02.434Z,53.21
2023-01-29T03:45:39.746Z,52.02
2023-01-29T03:48:18.787Z,51.85
2023-01-29T03:50:58.969Z,52.30
2023-01-29T03:53:33.263Z,52.07
2023-01-29T03:56:10.062Z,53.38
2023-01-29T03:58:45.860Z,54.58
2023-01-29T04:01:21.750Z,55.78
2023-01-29T04:03:58.612Z,56.23
2023-01-29T04:06:33.533Z,56.05
2023-01-29T04:09:07.938Z,56.08
2023-01-29T04:11:43.789Z,55.92
2023-01-29T04:14:16.602Z,56.68
2023-01-29T04:16:51.180Z,56.00
2023-01-29T04:19:23.610Z,56.82
2023-01-29T04:22:04.732Z,56.98
2023-01-29T04:24:36.101Z,57.27
2023-01-29T04:27:23.133Z,55.87
2023-01-29T04:30:07.301Z,56.91
2023-01-29T04:32:49.618Z,56.25
2023-01-29T04:35:33.923Z,56.84
2023-01-29T04:38:14.984Z,57.17
2023-01-29T04:40:54.596Z,56.61
2023-01-29T04:43:31.032Z,55.28
2023-01-29T04:46:15.672Z,55.62
2023-01-29T04:49:02.252Z,56.67
2023-01-29T04:51:46.304Z,55.78
2023-01-29T04:54:25.372Z,55.82
2023-01-29T04:57:02.406Z,56.27
2023-01-29T04:59:36.638Z,56.38
2023-01-29T05:02:10.791Z,56.87
2023-01-29T05:04:43.785Z,55.31
2023-01-29T05:07:21.069Z,54.78
2023-01-29T05:09:52.345Z,56.59
2023-01-29T05:12:22.883Z,55.78
2023-01-29T05:14:55.628Z,55.91
2023-01-29T05:17:26.718Z,55.76
2023-01-29T05:19:59.087Z,56.41
2023-01-29T05:22:32.505Z,56.19
2023-01-29T05:25:05.209Z,56.59
2023-01-29T05:27:55.939Z,56.65
2023-01-29T05:30:26.383Z,56.19
2023-01-29T05:32:56.759Z,56.62
2023-01-29T05:35:27.443Z,56.96
2023-01-29T05:38:00.112Z,56.73
2023-01-29T05:40:30.612Z,56.99
2023-01-29T05:43:01.106Z,57.15
2023-01-29T05:45:37.224Z,56.49
2023-01-29T05:48:08.116Z,56.92
2023-01-29T05:50:38.852Z,56.99
2023-01-29T05:53:12.487Z,56.19
2023-01-29T05:55:43.745Z,56.67
2023-01-29T05:58:14.645Z,56.50
2023-01-29T06:00:45.296Z,56.42
2023-01-29T06:03:15.852Z,55.99
2023-01-29T06:05:46.343Z,56.44
2023-01-29T06:08:18.811Z,56.41
2023-01-29T06:10:49.374Z,56.10
2023-01-29T06:13:19.820Z,56.22
2023-01-29T06:15:53.433Z,56.39
2023-01-29T06:18:24.434Z,57.04
2023-01-29T06:20:54.889Z,56.71
2023-01-29T06:23:27.037Z,57.26
2023-01-29T06:26:02.186Z,56.94
2023-01-29T06:28:33.002Z,56.63
2023-01-29T06:31:23.784Z,56.42
2023-01-29T06:33:55.785Z,56.65
2023-01-29T06:36:26.270Z,56.65
2023-01-29T06:38:58.322Z,57.33
2023-01-29T06:41:29.475Z,57.39
2023-01-29T06:43:59.950Z,57.71
2023-01-29T06:46:30.484Z,58.56
2023-01-29T06:49:02.670Z,58.25
2023-01-29T06:51:33.217Z,58.68
2023-01-29T06:54:05.265Z,58.49
2023-01-29T06:56:35.789Z,59.04
2023-01-29T06:59:06.761Z,59.76
2023-01-29T07:01:37.241Z,59.08
2023-01-29T07:04:07.837Z,59.35
2023-01-29T07:06:38.369Z,59.27
2023-01-29T07:09:10.325Z,59.20
2023-01-29T07:11:40.727Z,59.44
2023-01-29T07:14:11.359Z,59.80
2023-01-29T07:16:41.845Z,60.26
2023-01-29T07:19:12.571Z,60.62
2023-01-29T07:21:43.131Z,60.26
2023-01-29T07:24:15.477Z,60.49
2023-01-29T07:26:46.044Z,60.30
2023-01-29T07:29:16.540Z,59.98
2023-01-29T07:31:47.292Z,59.94
2023-01-29T07:34:17.877Z,59.91
2023-01-29T07:36:48.387Z,60.42
2023-01-29T07:39:20.664Z,60.67
2023-01-29T07:41:51.095Z,61.10
2023-01-29T07:44:22.024Z,61.76
2023-01-29T07:46:52.688Z,61.49
2023-01-29T07:49:23.199Z,61.86
2023-01-29T07:51:53.769Z,63.25
2023-01-29T07:54:25.950Z,62.50
2023-01-29T07:56:56.405Z,62.65
2023-01-29T07:59:27.515Z,62.53
2023-01-29T08:01:58.061Z,62.72
2023-01-29T08:04:30.349Z,63.74
2023-01-29T08:07:01.044Z,64.37
2023-01-29T08:09:36.635Z,65.66
2023-01-29T08:12:07.512Z,66.60
2023-01-29T08:14:38.245Z,67.09
2023-01-29T08:17:09.088Z,67.42
2023-01-29T08:19:40.491Z,67.72
2023-01-29T08:22:10.980Z,67.21
2023-01-29T08:24:53.888Z,66.89
2023-01-29T08:27:30.469Z,67.22
2023-01-29T08:30:03.641Z,67.46
2023-01-29T08:32:34.304Z,67.91
2023-01-29T08:35:04.790Z,68.41
2023-01-29T08:37:40.088Z,68.77
2023-01-29T08:40:14.317Z,68.54
2023-01-29T08:42:47.405Z,68.55
2023-01-29T08:45:21.052Z,68.69
2023-01-29T08:47:52.605Z,69.13
2023-01-29T08:50:23.719Z,69.36
2023-01-29T08:52:54.995Z,69.33
2023-01-29T08:55:46.720Z,69.33
2023-01-29T08:58:27.094Z,69.45
2023-01-29T09:01:12.737Z,69.40
2023-01-29T09:03:46.982Z,69.15
2023-01-29T09:06:18.529Z,69.00
2023-01-29T09:09:02.970Z,69.22
2023-01-29T09:11:44.151Z,70.08
2023-01-29T09:14:15.608Z,70.48
2023-01-29T09:16:46.080Z,70.25
2023-01-29T09:19:17.210Z,70.84
2023-01-29T09:21:47.784Z,71.45
2023-01-29T09:24:18.422Z,72.43
2023-01-29T09:26:50.652Z,73.20
2023-01-29T09:29:21.227Z,73.69
2023-01-29T09:31:52.553Z,74.21
2023-01-29T09:34:23.523Z,73.87
2023-01-29T09:36:55.375Z,73.73
2023-01-29T09:39:29.568Z,73.69
2023-01-29T09:42:16.540Z,74.18
2023-01-29T09:44:56.704Z,73.98
2023-01-29T09:47:29.518Z,74.94
2023-01-29T09:50:04.072Z,75.16
2023-01-29T09:53:00.264Z,75.53
2023-01-29T09:55:46.443Z,75.73
2023-01-29T09:58:34.898Z,76.36
2023-01-29T10:01:16.033Z,76.24
2023-01-29T10:04:17.902Z,76.03
2023-01-29T10:07:02.376Z,75.93
2023-01-29T10:10:04.773Z,75.84
2023-01-29T10:13:42.397Z,75.38
2023-01-29T10:16:49.727Z,74.82
2023-01-29T10:19:47.105Z,74.44
2023-01-29T10:22:57.334Z,74.25
2023-01-29T10:25:27.993Z,74.03
2023-01-29T10:28:00.912Z,73.92
2023-01-29T10:30:37.817Z,73.73
2023-01-29T10:34:19.309Z,73.95
2023-01-29T10:36:53.321Z,74.02
2023-01-29T10:39:26.377Z,73.67
2023-01-29T10:42:08.944Z,73.94
2023-01-29T10:44:50.374Z,74.09
2023-01-29T10:47:53.739Z,74.72
2023-01-29T10:50:39.180Z,73.86
2023-01-29T10:53:27.785Z,73.76
2023-01-29T10:56:21.993Z,73.66
2023-01-29T10:58:58.732Z,73.84
2023-01-29T11:01:30.292Z,73.78
2023-01-29T11:04:04.530Z,73.89
2023-01-29T11:06:37.439Z,73.87
2023-01-29T11:09:17.412Z,75.04
2023-01-29T11:11:50.090Z,74.96
2023-01-29T11:14:28.597Z,75.30
2023-01-29T11:17:00.577Z,74.16
2023-01-29T11:19:42.216Z,73.53
2023-01-29T11:22:18.452Z,72.27
2023-01-29T11:25:11.604Z,72.24
2023-01-29T11:27:49.466Z,72.24
2023-01-29T11:30:27.440Z,72.57
2023-01-29T11:33:10.399Z,72.97
2023-01-29T11:35:42.034Z,73.63
2023-01-29T11:38:23.275Z,73.46
2023-01-29T11:40:57.456Z,72.98
2023-01-29T11:43:34.221Z,72.69
2023-01-29T11:46:08.031Z,72.68
2023-01-29T11:48:51.536Z,72.96
2023-01-29T11:51:28.638Z,72.11
2023-01-29T11:54:02.277Z,71.35
2023-01-29T11:56:43.356Z,73.19
2023-01-29T11:59:32.516Z,73.23
2023-01-29T12:02:19.517Z,72.67
2023-01-29T12:04:51.808Z,72.45
2023-01-29T12:07:24.438Z,72.06
2023-01-29T12:09:58.216Z,71.77
2023-01-29T12:12:42.880Z,72.07
2023-01-29T12:15:29.508Z,71.87
2023-01-29T12:18:11.572Z,72.02
2023-01-29T12:20:49.250Z,72.00
2023-01-29T12:23:34.825Z,71.52
2023-01-29T12:26:12.367Z,72.13
2023-01-29T12:28:58.291Z,72.21
2023-01-29T12:31:37.161Z,72.21
2023-01-29T12:34:15.987Z,72.21
2023-01-29T12:36:54.375Z,73.21
2023-01-29T12:39:27.338Z,73.40
2023-01-29T12:42:07.054Z,73.60
2023-01-29T12:44:46.048Z,74.01
2023-01-29T12:47:22.726Z,74.57
2023-01-29T12:49:59.015Z,75.00
2023-01-29T12:52:41.062Z,75.76
2023-01-29T12:55:19.677Z,76.13
2023-01-29T12:57:58.119Z,76.64
2023-01-29T13:00:35.784Z,76.97
2023-01-29T13:03:18.847Z,77.26
2023-01-29T13:05:53.629Z,77.03
2023-01-29T13:08:30.107Z,77.31
2023-01-29T13:11:05.094Z,77.24
2023-01-29T13:13:40.317Z,77.14
2023-01-29T13:16:23.513Z,77.40
2023-01-29T13:19:00.224Z,77.22
2023-01-29T13:21:39.197Z,77.26
2023-01-29T13:24:18.864Z,77.26
2023-01-29T13:26:51.254Z,77.02
2023-01-29T13:29:27.392Z,77.11
2023-01-29T13:32:02.508Z,77.34
2023-01-29T13:34:36.918Z,77.17
2023-01-29T13:37:14.231Z,76.70
2023-01-29T13:39:52.927Z,76.64
2023-01-29T13:42:27.400Z,76.43
2023-01-29T13:45:01.040Z,76.82
2023-01-29T13:47:36.344Z,76.52
2023-01-29T13:50:10.546Z,76.13
2023-01-29T13:52:44.978Z,75.95
2023-01-29T13:55:32.180Z,76.16
2023-01-29T13:58:04.700Z,75.32
2023-01-29T14:01:00.399Z,74.23
2023-01-29T14:04:05.705Z,72.81
2023-01-29T14:06:52.185Z,72.27
2023-01-29T14:10:01.634Z,72.33
2023-01-29T14:13:05.674Z,72.52
2023-01-29T14:15:37.743Z,73.07
2023-01-29T14:18:24.487Z,73.93
2023-01-29T14:21:05.161Z,74.73
2023-01-29T14:23:49.639Z,75.18
2023-01-29T14:26:33.135Z,75.59
2023-01-29T14:29:34.415Z,75.34
2023-01-29T14:32:18.394Z,76.10
2023-01-29T14:34:52.517Z,75.08
2023-01-29T14:37:31.956Z,74.80
2023-01-29T14:40:18.281Z,74.03
2023-01-29T14:42:57.432Z,74.69
2023-01-29T14:45:34.008Z,74.31
2023-01-29T14:48:40.852Z,73.37
2023-01-29T14:51:16.458Z,73.00
2023-01-29T14:53:56.963Z,73.79
2023-01-29T14:56:38.787Z,73.64
2023-01-29T14:59:20.588Z,73.97
2023-01-29T15:01:56.554Z,74.63
2023-01-29T15:04:31.590Z,73.56
2023-01-29T15:07:21.363Z,73.41
2023-01-29T15:10:13.465Z,73.78
2023-01-29T15:12:55.817Z,75.35
2023-01-29T15:15:39.235Z,75.87
2023-01-29T15:18:16.137Z,75.92
2023-01-29T15:20:47.727Z,75.68
2023-01-29T15:23:31.575Z,74.68
2023-01-29T15:26:16.558Z,74.60
2023-01-29T15:29:03.492Z,73.97
2023-01-29T15:32:02.156Z,73.44
2023-01-29T15:34:45.052Z,72.88
2023-01-29T15:37:54.000Z,73.18
2023-01-29T15:40:40.597Z,73.57
2023-01-29T15:43:36.169Z,73.81
2023-01-29T15:46:19.237Z,73.58
2023-01-29T15:48:56.340Z,73.45
2023-01-29T15:51:45.473Z,73.69
2023-01-29T15:54:19.898Z,73.76
2023-01-29T15:57:00.124Z,74.55
2023-01-29T15:59:58.567Z,75.22
2023-01-29T16:02:50.685Z,75.41
2023-01-29T16:05:26.919Z,75.08
2023-01-29T16:08:04.369Z,75.24
2023-01-29T16:10:36.922Z,74.26
2023-01-29T16:13:11.095Z,73.26
2023-01-29T16:15:58.748Z,73.97
2023-01-29T16:18:35.334Z,73.16
2023-01-29T16:21:10.099Z,73.27
2023-01-29T16:23:45.575Z,73.73
2023-01-29T16:26:21.002Z,73.49
2023-01-29T16:29:03.552Z,73.29
2023-01-29T16:31:36.834Z,73.35
2023-01-29T16:34:14.570Z,73.55
2023-01-29T16:36:53.591Z,73.39
2023-01-29T16:39:28.596Z,73.92
2023-01-29T16:42:28.629Z,74.21
2023-01-29T16:45:01.705Z,74.71
2023-01-29T16:47:37.545Z,75.02
2023-01-29T16:50:40.633Z,75.25
2023-01-29T16:53:25.115Z,74.88
2023-01-29T16:55:57.812Z,74.16
2023-01-29T16:58:31.318Z,74.03
2023-01-29T17:01:09.137Z,73.88
2023-01-29T17:03:43.496Z,74.06
2023-01-29T17:06:29.610Z,73.74
2023-01-29T17:09:00.680Z,73.11
2023-01-29T17:11:37.073Z,72.50
2023-01-29T17:14:15.060Z,72.45
2023-01-29T17:16:53.617Z,72.36
2023-01-29T17:19:26.853Z,72.71
2023-01-29T17:21:57.725Z,73.43
2023-01-29T17:24:43.643Z,73.68
2023-01-29T17:27:21.214Z,74.27
2023-01-29T17:29:54.038Z,73.92
2023-01-29T17:32:44.748Z,73.13
2023-01-29T17:35:22.128Z,72.57
2023-01-29T17:37:52.949Z,72.65
2023-01-29T17:40:36.276Z,73.78
2023-01-29T17:43:08.026Z,74.21
2023-01-29T17:45:41.862Z,74.14
2023-01-29T17:48:17.119Z,74.06
2023-01-29T17:50:57.434Z,72.87
2023-01-29T17:53:44.844Z,73.50
2023-01-29T17:56:20.876Z,73.58
2023-01-29T17:58:52.052Z,72.56
2023-01-29T18:01:22.982Z,71.77
2023-01-29T18:03:55.916Z,72.04
2023-01-29T18:06:32.541Z,72.23
2023-01-29T18:09:06.207Z,72.45
2023-01-29T18:11:39.768Z,73.16
2023-01-29T18:14:13.937Z,72.91
2023-01-29T18:16:46.782Z,72.98
2023-01-29T18:19:22.091Z,72.07
2023-01-29T18:21:55.147Z,71.87
2023-01-29T18:24:30.373Z,71.77
2023-01-29T18:27:01.129Z,72.73
2023-01-29T18:29:31.983Z,73.76
2023-01-29T18:32:12.736Z,74.20
2023-01-29T18:34:44.044Z,74.33
2023-01-29T18:37:30.628Z,74.77
2023-01-29T18:40:04.387Z,74.97
2023-01-29T18:42:37.912Z,75.64
2023-01-29T18:45:09.458Z,75.44
2023-01-29T18:47:42.691Z,75.96
2023-01-29T18:50:17.930Z,75.36
2023-01-29T18:52:50.207Z,74.52
2023-01-29T18:55:23.932Z,73.31
2023-01-29T18:58:26.067Z,72.07
2023-01-29T19:00:46.782Z,70.94
2023-01-29T19:03:18.167Z,70.06
2023-01-29T19:05:51.858Z,69.92
2023-01-29T19:08:26.447Z,69.57
2023-01-29T19:10:56.952Z,69.67
2023-01-29T19:13:27.864Z,68.76
2023-01-29T19:15:58.407Z,68.47
2023-01-29T19:18:29.701Z,68.95
2023-01-29T19:21:02.276Z,67.69
2023-01-29T19:23:34.318Z,67.36
2023-01-29T19:26:04.863Z,66.99
2023-01-29T19:28:35.779Z,67.24
2023-01-29T19:31:06.848Z,67.20
2023-01-29T19:33:37.647Z,67.06
2023-01-29T19:36:08.935Z,66.59
2023-01-29T19:38:41.077Z,66.53
2023-01-29T19:41:12.185Z,67.52
2023-01-29T19:43:43.781Z,67.53
2023-01-29T19:46:16.751Z,66.93
2023-01-29T19:48:51.430Z,66.92
2023-01-29T19:51:25.310Z,66.52
2023-01-29T19:53:58.431Z,66.38
2023-01-29T19:56:31.670Z,66.72
2023-01-29T19:59:02.111Z,66.95
2023-01-29T20:01:32.608Z,67.49
2023-01-29T20:04:03.364Z,67.97
2023-01-29T20:06:36.636Z,68.04
2023-01-29T20:09:09.465Z,67.95
2023-01-29T20:11:42.980Z,68.36
2023-01-29T20:14:14.030Z,68.30
2023-01-29T20:16:44.761Z,68.17
2023-01-29T20:19:16.043Z,68.55
2023-01-29T20:21:50.666Z,67.75
2023-01-29T20:24:24.151Z,67.44
2023-01-29T20:26:54.781Z,66.47
2023-01-29T20:29:25.395Z,66.18
2023-01-29T20:31:55.906Z,66.33
2023-01-29T20:34:29.690Z,66.67
2023-01-29T20:37:00.312Z,66.81
2023-01-29T20:39:34.404Z,66.88
2023-01-29T20:42:05.011Z,68.05
2023-01-29T20:44:35.497Z,68.90
2023-01-29T20:47:06.307Z,69.60
2023-01-29T20:49:36.951Z,70.05
2023-01-29T20:52:08.402Z,70.79
2023-01-29T20:54:41.008Z,70.99
2023-01-29T20:57:11.545Z,71.14
2023-01-29T20:59:44.644Z,70.63
2023-01-29T21:02:15.245Z,70.71
2023-01-29T21:04:45.718Z,70.43
2023-01-29T21:07:16.320Z,69.96
2023-01-29T21:09:48.376Z,70.40
2023-01-29T21:12:19.093Z,69.64
2023-01-29T21:14:49.531Z,70.43
2023-01-29T21:17:20.087Z,70.69
2023-01-29T21:19:51.017Z,70.77
2023-01-29T21:22:24.886Z,70.68
2023-01-29T21:24:56.982Z,70.54
2023-01-29T21:27:28.324Z,70.91
2023-01-29T21:29:59.019Z,71.55
2023-01-29T21:32:30.023Z,71.96
2023-01-29T21:35:01.026Z,72.17
2023-01-29T21:37:34.346Z,72.48
2023-01-29T21:40:09.700Z,72.64
2023-01-29T21:42:56.912Z,72.06
2023-01-29T21:45:27.446Z,72.24
2023-01-29T21:47:58.096Z,73.22
2023-01-29T21:50:28.557Z,74.84
2023-01-29T21:52:59.147Z,75.41
2023-01-29T21:55:31.235Z,75.91
2023-01-29T21:58:02.366Z,76.23
2023-01-29T22:00:32.944Z,76.50
2023-01-29T22:03:03.559Z,76.65
2023-01-29T22:05:34.193Z,75.95
2023-01-29T22:08:05.640Z,75.06
2023-01-29T22:10:37.859Z,74.84
2023-01-29T22:13:08.483Z,74.47
2023-01-29T22:15:39.056Z,74.64
2023-01-29T22:18:09.613Z,74.66
2023-01-29T22:20:40.118Z,74.64
2023-01-29T22:23:13.386Z,74.53
2023-01-29T22:25:46.835Z,74.00
2023-01-29T22:28:18.312Z,73.45
2023-01-29T22:30:49.642Z,73.14
2023-01-29T22:33:20.101Z,73.02
2023-01-29T22:35:56.966Z,72.44
2023-01-29T22:38:28.160Z,72.00
2023-01-29T22:41:02.353Z,71.26
2023-01-29T22:43:32.911Z,70.05
2023-01-29T22:46:03.475Z,69.90
2023-01-29T22:48:33.989Z,69.78
2023-01-29T22:51:11.974Z,69.77
2023-01-29T22:53:44.177Z,70.28
2023-01-29T22:56:16.403Z,70.46
2023-01-29T22:58:46.942Z,70.43
2023-01-29T23:01:20.350Z,70.57
2023-01-29T23:03:51.606Z,70.42
2023-01-29T23:06:22.772Z,69.92
2023-01-29T23:08:53.590Z,69.82
2023-01-29T23:11:25.718Z,70.13
2023-01-29T23:13:57.325Z,70.29
2023-01-29T23:16:30.517Z,69.97
2023-01-29T23:19:01.048Z,70.06
2023-01-29T23:21:31.518Z,70.60
2023-01-29T23:24:02.088Z,70.91
2023-01-29T23:26:51.079Z,71.38
2023-01-29T23:29:21.535Z,71.91
2023-01-29T23:31:52.145Z,72.60
2023-01-29T23:34:22.769Z,73.20
2023-01-29T23:36:53.381Z,72.87
2023-01-29T23:39:23.817Z,72.62
2023-01-29T23:41:55.879Z,72.44
2023-01-29T23:44:26.497Z,71.90
2023-01-29T23:46:57.072Z,72.13
2023-01-29T23:49:30.459Z,72.23
2023-01-29T23:52:01.034Z,71.62
2023-01-29T23:54:31.685Z,71.35
2023-01-29T23:57:03.784Z,71.19
2023-01-29T23:59:34.344Z,70.67
